Huvudsida
METAR-TAF:

METAR-TAF

Flygplatser :

Foggia, Italien

latitud: 41-25-58N, longitud: 015-32-06E, höjd: 81 m

Aktuellt väderrapport

Denna rapport gjordes för 54 minuter sedan, klockan 13:50 UTC
Vind 16 kt från nord/nordväst
Temperatur 32°C
Fuktighet 38%
Tryck 1019 hPa
Sikt 10 km eller mer
Inga moln under 1 500 m eller inga cumulonimbus

METAR: LIBF 261350Z 34016KT CAVOK 32/16 Q1019

Tid: 16:44 (14:44 UTC)


TAF: saknas

Aktuella väderrapporter och prognoser från 4000 flygplatser (METAR- och TAF-rapporter).

De tillgängliga stationerna syns som gula och röda prickar på kartan.

För musen över prickarna för att se namnen på stationerna.

Klicka sedan för att få väderrapporter och prognoser.

För att ändra kartan: Klicka på de gröna knapparna med ett svart kors på för att zooma in; den gröna knappen med ett streck på för att zooma ut; eller på de gröna pilarna för angränsande kartor.


METAR-TAF: